sensor_id;sensor_type;location;lat;lon;timestamp;P1;durP1;ratioP1;P2;durP2;ratioP2
13408;SDS011;6775;49.574;11.170;2023-09-07T00:01:45;4.57;;;4.17;;
13408;SDS011;6775;49.574;11.170;2023-09-07T00:04:13;4.33;;;3.43;;
13408;SDS011;6775;49.574;11.170;2023-09-07T00:06:41;4.10;;;3.70;;
13408;SDS011;6775;49.574;11.170;2023-09-07T00:09:09;3.80;;;3.50;;
13408;SDS011;6775;49.574;11.170;2023-09-07T00:11:39;3.93;;;3.53;;
13408;SDS011;6775;49.574;11.170;2023-09-07T00:14:07;4.70;;;4.20;;
13408;SDS011;6775;49.574;11.170;2023-09-07T00:16:35;4.27;;;3.87;;
13408;SDS011;6775;49.574;11.170;2023-09-07T00:19:06;4.47;;;3.97;;
13408;SDS011;6775;49.574;11.170;2023-09-07T00:21:34;4.63;;;4.17;;
13408;SDS011;6775;49.574;11.170;2023-09-07T00:24:03;4.63;;;3.83;;
13408;SDS011;6775;49.574;11.170;2023-09-07T00:26:31;4.90;;;4.33;;
13408;SDS011;6775;49.574;11.170;2023-09-07T00:29:00;5.60;;;3.77;;
13408;SDS011;6775;49.574;11.170;2023-09-07T00:31:28;5.00;;;3.83;;
13408;SDS011;6775;49.574;11.170;2023-09-07T00:33:56;4.30;;;3.53;;
13408;SDS011;6775;49.574;11.170;2023-09-07T00:36:26;4.00;;;3.70;;
13408;SDS011;6775;49.574;11.170;2023-09-07T00:38:54;4.30;;;3.90;;
13408;SDS011;6775;49.574;11.170;2023-09-07T00:41:22;3.97;;;3.57;;
13408;SDS011;6775;49.574;11.170;2023-09-07T00:43:50;4.57;;;4.17;;
13408;SDS011;6775;49.574;11.170;2023-09-07T00:46:18;3.87;;;3.47;;
13408;SDS011;6775;49.574;11.170;2023-09-07T00:48:47;3.90;;;3.57;;
13408;SDS011;6775;49.574;11.170;2023-09-07T00:51:16;4.87;;;3.80;;
13408;SDS011;6775;49.574;11.170;2023-09-07T00:53:45;4.20;;;3.83;;
13408;SDS011;6775;49.574;11.170;2023-09-07T00:56:13;4.53;;;4.10;;
13408;SDS011;6775;49.574;11.170;2023-09-07T00:58:41;3.87;;;3.57;;
13408;SDS011;6775;49.574;11.170;2023-09-07T01:01:10;4.40;;;4.00;;
13408;SDS011;6775;49.574;11.170;2023-09-07T01:03:38;4.70;;;4.17;;
13408;SDS011;6775;49.574;11.170;2023-09-07T01:06:07;4.23;;;3.83;;
13408;SDS011;6775;49.574;11.170;2023-09-07T01:08:46;4.80;;;4.37;;
13408;SDS011;6775;49.574;11.170;2023-09-07T01:11:19;4.57;;;4.17;;
13408;SDS011;6775;49.574;11.170;2023-09-07T01:13:49;5.03;;;4.30;;
13408;SDS011;6775;49.574;11.170;2023-09-07T01:16:18;6.40;;;4.23;;
13408;SDS011;6775;49.574;11.170;2023-09-07T01:18:48;5.07;;;4.23;;
13408;SDS011;6775;49.574;11.170;2023-09-07T01:21:16;4.63;;;3.93;;
13408;SDS011;6775;49.574;11.170;2023-09-07T01:23:47;5.00;;;4.17;;
13408;SDS011;6775;49.574;11.170;2023-09-07T01:26:17;4.83;;;4.17;;
13408;SDS011;6775;49.574;11.170;2023-09-07T01:28:45;5.07;;;4.43;;
13408;SDS011;6775;49.574;11.170;2023-09-07T01:31:14;4.70;;;4.20;;
13408;SDS011;6775;49.574;11.170;2023-09-07T01:33:43;4.23;;;3.83;;
13408;SDS011;6775;49.574;11.170;2023-09-07T01:36:11;4.10;;;3.80;;
13408;SDS011;6775;49.574;11.170;2023-09-07T01:38:39;4.10;;;3.70;;
13408;SDS011;6775;49.574;11.170;2023-09-07T01:41:09;3.87;;;3.53;;
13408;SDS011;6775;49.574;11.170;2023-09-07T01:43:37;4.63;;;4.07;;
13408;SDS011;6775;49.574;11.170;2023-09-07T01:46:06;3.67;;;3.37;;
13408;SDS011;6775;49.574;11.170;2023-09-07T01:48:34;4.30;;;3.90;;
13408;SDS011;6775;49.574;11.170;2023-09-07T01:51:02;5.03;;;4.03;;
13408;SDS011;6775;49.574;11.170;2023-09-07T01:53:31;4.33;;;3.93;;
13408;SDS011;6775;49.574;11.170;2023-09-07T01:55:59;4.77;;;4.30;;
13408;SDS011;6775;49.574;11.170;2023-09-07T01:58:28;5.47;;;4.60;;
13408;SDS011;6775;49.574;11.170;2023-09-07T02:00:57;4.10;;;3.70;;
13408;SDS011;6775;49.574;11.170;2023-09-07T02:03:26;4.83;;;4.33;;
13408;SDS011;6775;49.574;11.170;2023-09-07T02:05:54;4.87;;;4.40;;
13408;SDS011;6775;49.574;11.170;2023-09-07T02:08:22;5.60;;;4.10;;
13408;SDS011;6775;49.574;11.170;2023-09-07T02:10:50;4.60;;;4.20;;
13408;SDS011;6775;49.574;11.170;2023-09-07T02:13:18;5.77;;;4.27;;
13408;SDS011;6775;49.574;11.170;2023-09-07T02:15:47;4.40;;;4.03;;
13408;SDS011;6775;49.574;11.170;2023-09-07T02:18:15;6.37;;;4.80;;
13408;SDS011;6775;49.574;11.170;2023-09-07T02:20:43;5.23;;;4.30;;
13408;SDS011;6775;49.574;11.170;2023-09-07T02:23:12;4.70;;;4.20;;
13408;SDS011;6775;49.574;11.170;2023-09-07T02:25:40;5.83;;;4.60;;
13408;SDS011;6775;49.574;11.170;2023-09-07T02:28:09;4.40;;;4.03;;
13408;SDS011;6775;49.574;11.170;2023-09-07T02:30:37;5.60;;;4.37;;
13408;SDS011;6775;49.574;11.170;2023-09-07T02:33:06;5.70;;;4.30;;
13408;SDS011;6775;49.574;11.170;2023-09-07T02:35:36;5.63;;;4.30;;
13408;SDS011;6775;49.574;11.170;2023-09-07T02:38:04;4.03;;;3.73;;
13408;SDS011;6775;49.574;11.170;2023-09-07T02:40:32;4.73;;;4.00;;
13408;SDS011;6775;49.574;11.170;2023-09-07T02:43:08;4.57;;;4.17;;
13408;SDS011;6775;49.574;11.170;2023-09-07T02:45:36;4.67;;;4.13;;
13408;SDS011;6775;49.574;11.170;2023-09-07T02:48:04;4.93;;;4.40;;
13408;SDS011;6775;49.574;11.170;2023-09-07T02:50:34;5.27;;;4.07;;
13408;SDS011;6775;49.574;11.170;2023-09-07T02:53:02;4.97;;;4.40;;
13408;SDS011;6775;49.574;11.170;2023-09-07T02:55:31;5.43;;;4.33;;
13408;SDS011;6775;49.574;11.170;2023-09-07T02:57:59;4.47;;;4.07;;
13408;SDS011;6775;49.574;11.170;2023-09-07T03:00:29;4.07;;;3.67;;
13408;SDS011;6775;49.574;11.170;2023-09-07T03:02:57;4.40;;;4.00;;
13408;SDS011;6775;49.574;11.170;2023-09-07T03:05:27;5.00;;;3.93;;
13408;SDS011;6775;49.574;11.170;2023-09-07T03:07:55;4.00;;;3.67;;
13408;SDS011;6775;49.574;11.170;2023-09-07T03:10:23;6.63;;;4.50;;
13408;SDS011;6775;49.574;11.170;2023-09-07T03:12:51;4.30;;;3.90;;
13408;SDS011;6775;49.574;11.170;2023-09-07T03:15:21;4.73;;;4.27;;
13408;SDS011;6775;49.574;11.170;2023-09-07T03:17:49;4.97;;;4.20;;
13408;SDS011;6775;49.574;11.170;2023-09-07T03:20:17;5.30;;;4.80;;
13408;SDS011;6775;49.574;11.170;2023-09-07T03:22:47;5.10;;;4.23;;
13408;SDS011;6775;49.574;11.170;2023-09-07T03:25:15;6.70;;;5.27;;
13408;SDS011;6775;49.574;11.170;2023-09-07T03:27:43;5.57;;;4.87;;
13408;SDS011;6775;49.574;11.170;2023-09-07T03:30:12;5.33;;;4.70;;
13408;SDS011;6775;49.574;11.170;2023-09-07T03:32:40;5.30;;;4.80;;
13408;SDS011;6775;49.574;11.170;2023-09-07T03:35:08;6.13;;;5.37;;
13408;SDS011;6775;49.574;11.170;2023-09-07T03:37:36;5.70;;;5.00;;
13408;SDS011;6775;49.574;11.170;2023-09-07T03:40:07;8.27;;;4.73;;
13408;SDS011;6775;49.574;11.170;2023-09-07T03:42:36;5.10;;;4.60;;
13408;SDS011;6775;49.574;11.170;2023-09-07T03:45:05;4.80;;;4.30;;
13408;SDS011;6775;49.574;11.170;2023-09-07T03:47:34;5.27;;;4.53;;
13408;SDS011;6775;49.574;11.170;2023-09-07T03:50:02;4.57;;;4.17;;
13408;SDS011;6775;49.574;11.170;2023-09-07T03:52:32;4.63;;;4.23;;
13408;SDS011;6775;49.574;11.170;2023-09-07T03:55:00;4.33;;;3.90;;
13408;SDS011;6775;49.574;11.170;2023-09-07T03:57:29;4.70;;;4.27;;
13408;SDS011;6775;49.574;11.170;2023-09-07T03:59:58;5.33;;;4.50;;
13408;SDS011;6775;49.574;11.170;2023-09-07T04:02:27;6.20;;;4.63;;
13408;SDS011;6775;49.574;11.170;2023-09-07T04:04:55;5.23;;;4.70;;
13408;SDS011;6775;49.574;11.170;2023-09-07T04:07:23;5.00;;;4.50;;
13408;SDS011;6775;49.574;11.170;2023-09-07T04:09:51;5.30;;;4.80;;
13408;SDS011;6775;49.574;11.170;2023-09-07T04:12:20;5.87;;;4.50;;
13408;SDS011;6775;49.574;11.170;2023-09-07T04:14:49;5.53;;;4.50;;
13408;SDS011;6775;49.574;11.170;2023-09-07T04:17:18;5.37;;;4.80;;
13408;SDS011;6775;49.574;11.170;2023-09-07T04:19:46;5.43;;;4.57;;
13408;SDS011;6775;49.574;11.170;2023-09-07T04:22:14;4.97;;;4.20;;
13408;SDS011;6775;49.574;11.170;2023-09-07T04:24:42;6.67;;;4.73;;
13408;SDS011;6775;49.574;11.170;2023-09-07T04:27:10;7.07;;;4.60;;
13408;SDS011;6775;49.574;11.170;2023-09-07T04:29:37;5.63;;;4.90;;
13408;SDS011;6775;49.574;11.170;2023-09-07T04:32:07;4.87;;;4.47;;
13408;SDS011;6775;49.574;11.170;2023-09-07T04:34:35;4.50;;;3.90;;
13408;SDS011;6775;49.574;11.170;2023-09-07T04:37:03;5.17;;;4.53;;
13408;SDS011;6775;49.574;11.170;2023-09-07T04:39:31;6.53;;;4.77;;
13408;SDS011;6775;49.574;11.170;2023-09-07T04:41:59;4.80;;;4.33;;
13408;SDS011;6775;49.574;11.170;2023-09-07T04:44:27;5.30;;;4.37;;
13408;SDS011;6775;49.574;11.170;2023-09-07T04:46:55;5.03;;;4.37;;
13408;SDS011;6775;49.574;11.170;2023-09-07T04:49:25;4.60;;;4.17;;
13408;SDS011;6775;49.574;11.170;2023-09-07T04:51:53;5.47;;;4.57;;
13408;SDS011;6775;49.574;11.170;2023-09-07T04:54:21;6.70;;;5.17;;
13408;SDS011;6775;49.574;11.170;2023-09-07T04:56:49;5.57;;;4.97;;
13408;SDS011;6775;49.574;11.170;2023-09-07T04:59:17;5.07;;;4.53;;
13408;SDS011;6775;49.574;11.170;2023-09-07T05:01:45;5.93;;;4.33;;
13408;SDS011;6775;49.574;11.170;2023-09-07T05:04:13;4.87;;;4.47;;
13408;SDS011;6775;49.574;11.170;2023-09-07T05:06:43;6.67;;;4.93;;
13408;SDS011;6775;49.574;11.170;2023-09-07T05:09:11;5.03;;;4.60;;
13408;SDS011;6775;49.574;11.170;2023-09-07T05:11:39;6.50;;;4.33;;
13408;SDS011;6775;49.574;11.170;2023-09-07T05:14:07;5.90;;;5.20;;
13408;SDS011;6775;49.574;11.170;2023-09-07T05:16:35;5.97;;;4.70;;
13408;SDS011;6775;49.574;11.170;2023-09-07T05:19:03;5.40;;;4.83;;
13408;SDS011;6775;49.574;11.170;2023-09-07T05:21:31;4.60;;;4.17;;
13408;SDS011;6775;49.574;11.170;2023-09-07T05:24:01;4.33;;;3.93;;
13408;SDS011;6775;49.574;11.170;2023-09-07T05:26:30;4.80;;;4.30;;
13408;SDS011;6775;49.574;11.170;2023-09-07T05:28:58;4.80;;;3.90;;
13408;SDS011;6775;49.574;11.170;2023-09-07T05:31:26;4.30;;;3.90;;
13408;SDS011;6775;49.574;11.170;2023-09-07T05:33:54;4.90;;;4.20;;
13408;SDS011;6775;49.574;11.170;2023-09-07T05:36:22;4.93;;;3.90;;
13408;SDS011;6775;49.574;11.170;2023-09-07T05:38:50;4.90;;;4.50;;
13408;SDS011;6775;49.574;11.170;2023-09-07T05:41:19;4.40;;;3.53;;
13408;SDS011;6775;49.574;11.170;2023-09-07T05:43:47;3.80;;;3.50;;
13408;SDS011;6775;49.574;11.170;2023-09-07T05:46:16;4.23;;;3.83;;
13408;SDS011;6775;49.574;11.170;2023-09-07T05:48:44;4.47;;;4.07;;
13408;SDS011;6775;49.574;11.170;2023-09-07T05:51:12;4.13;;;3.73;;
13408;SDS011;6775;49.574;11.170;2023-09-07T05:53:40;4.50;;;4.10;;
13408;SDS011;6775;49.574;11.170;2023-09-07T05:56:08;4.70;;;3.57;;
13408;SDS011;6775;49.574;11.170;2023-09-07T05:58:37;3.70;;;3.40;;
13408;SDS011;6775;49.574;11.170;2023-09-07T06:01:05;4.07;;;3.67;;
13408;SDS011;6775;49.574;11.170;2023-09-07T06:03:33;3.83;;;3.43;;
13408;SDS011;6775;49.574;11.170;2023-09-07T06:06:02;4.10;;;3.70;;
13408;SDS011;6775;49.574;11.170;2023-09-07T06:08:30;3.93;;;3.63;;
13408;SDS011;6775;49.574;11.170;2023-09-07T06:10:59;3.70;;;3.30;;
13408;SDS011;6775;49.574;11.170;2023-09-07T06:13:27;3.97;;;3.57;;
13408;SDS011;6775;49.574;11.170;2023-09-07T06:15:56;3.77;;;3.47;;
13408;SDS011;6775;49.574;11.170;2023-09-07T06:18:26;3.77;;;3.47;;
13408;SDS011;6775;49.574;11.170;2023-09-07T06:20:55;3.47;;;3.17;;
13408;SDS011;6775;49.574;11.170;2023-09-07T06:23:23;4.70;;;4.17;;
13408;SDS011;6775;49.574;11.170;2023-09-07T06:25:51;3.70;;;3.40;;
13408;SDS011;6775;49.574;11.170;2023-09-07T06:28:19;3.30;;;3.07;;
13408;SDS011;6775;49.574;11.170;2023-09-07T06:30:48;4.40;;;3.67;;
13408;SDS011;6775;49.574;11.170;2023-09-07T06:33:17;3.97;;;3.67;;
13408;SDS011;6775;49.574;11.170;2023-09-07T06:35:46;3.83;;;3.50;;
13408;SDS011;6775;49.574;11.170;2023-09-07T06:38:14;3.73;;;3.43;;
13408;SDS011;6775;49.574;11.170;2023-09-07T06:40:46;3.53;;;3.23;;
13408;SDS011;6775;49.574;11.170;2023-09-07T06:43:15;4.10;;;3.70;;
13408;SDS011;6775;49.574;11.170;2023-09-07T06:45:44;3.43;;;3.13;;
13408;SDS011;6775;49.574;11.170;2023-09-07T06:48:12;3.60;;;3.30;;
13408;SDS011;6775;49.574;11.170;2023-09-07T06:50:41;3.60;;;3.30;;
13408;SDS011;6775;49.574;11.170;2023-09-07T06:53:09;5.23;;;3.53;;
13408;SDS011;6775;49.574;11.170;2023-09-07T06:55:37;4.83;;;3.70;;
13408;SDS011;6775;49.574;11.170;2023-09-07T06:58:05;4.43;;;3.50;;
13408;SDS011;6775;49.574;11.170;2023-09-07T07:00:33;4.00;;;3.60;;
13408;SDS011;6775;49.574;11.170;2023-09-07T07:03:02;4.23;;;3.90;;
13408;SDS011;6775;49.574;11.170;2023-09-07T07:05:30;4.30;;;3.90;;
13408;SDS011;6775;49.574;11.170;2023-09-07T07:08:01;4.00;;;3.47;;
13408;SDS011;6775;49.574;11.170;2023-09-07T07:10:29;3.63;;;3.33;;
13408;SDS011;6775;49.574;11.170;2023-09-07T07:12:57;3.33;;;3.03;;
13408;SDS011;6775;49.574;11.170;2023-09-07T07:15:26;3.67;;;3.30;;
13408;SDS011;6775;49.574;11.170;2023-09-07T07:17:54;3.67;;;3.30;;
13408;SDS011;6775;49.574;11.170;2023-09-07T07:20:22;4.07;;;3.23;;
13408;SDS011;6775;49.574;11.170;2023-09-07T07:22:50;3.97;;;3.57;;
13408;SDS011;6775;49.574;11.170;2023-09-07T07:25:19;6.33;;;3.87;;
13408;SDS011;6775;49.574;11.170;2023-09-07T07:27:47;3.97;;;3.50;;
13408;SDS011;6775;49.574;11.170;2023-09-07T07:30:15;3.90;;;3.50;;
13408;SDS011;6775;49.574;11.170;2023-09-07T07:32:44;4.90;;;3.40;;
13408;SDS011;6775;49.574;11.170;2023-09-07T07:35:12;8.27;;;3.10;;
13408;SDS011;6775;49.574;11.170;2023-09-07T07:37:41;8.57;;;3.80;;
13408;SDS011;6775;49.574;11.170;2023-09-07T07:40:09;3.70;;;3.40;;
13408;SDS011;6775;49.574;11.170;2023-09-07T07:42:40;5.87;;;3.10;;
13408;SDS011;6775;49.574;11.170;2023-09-07T07:45:08;4.30;;;3.90;;
13408;SDS011;6775;49.574;11.170;2023-09-07T07:47:39;3.47;;;3.20;;
13408;SDS011;6775;49.574;11.170;2023-09-07T07:50:08;3.87;;;3.30;;
13408;SDS011;6775;49.574;11.170;2023-09-07T07:52:36;3.83;;;3.33;;
13408;SDS011;6775;49.574;11.170;2023-09-07T07:55:05;5.63;;;3.33;;
13408;SDS011;6775;49.574;11.170;2023-09-07T07:57:33;3.63;;;3.33;;
13408;SDS011;6775;49.574;11.170;2023-09-07T08:00:03;3.70;;;3.40;;
13408;SDS011;6775;49.574;11.170;2023-09-07T08:02:35;3.57;;;3.27;;
13408;SDS011;6775;49.574;11.170;2023-09-07T08:05:04;4.77;;;3.37;;
13408;SDS011;6775;49.574;11.170;2023-09-07T08:07:33;4.93;;;3.30;;
13408;SDS011;6775;49.574;11.170;2023-09-07T08:10:01;3.23;;;3.03;;
13408;SDS011;6775;49.574;11.170;2023-09-07T08:12:29;3.43;;;3.13;;
13408;SDS011;6775;49.574;11.170;2023-09-07T08:14:57;3.83;;;3.50;;
13408;SDS011;6775;49.574;11.170;2023-09-07T08:17:26;3.20;;;3.00;;
13408;SDS011;6775;49.574;11.170;2023-09-07T08:19:55;3.37;;;3.07;;
13408;SDS011;6775;49.574;11.170;2023-09-07T08:22:23;3.67;;;3.37;;
13408;SDS011;6775;49.574;11.170;2023-09-07T08:24:51;3.47;;;3.20;;
13408;SDS011;6775;49.574;11.170;2023-09-07T08:27:20;3.30;;;3.00;;
13408;SDS011;6775;49.574;11.170;2023-09-07T08:29:48;3.37;;;3.07;;
13408;SDS011;6775;49.574;11.170;2023-09-07T08:32:17;3.47;;;3.17;;
13408;SDS011;6775;49.574;11.170;2023-09-07T08:34:47;3.50;;;3.20;;
13408;SDS011;6775;49.574;11.170;2023-09-07T08:37:15;4.20;;;2.90;;
13408;SDS011;6775;49.574;11.170;2023-09-07T08:39:43;3.30;;;3.00;;
13408;SDS011;6775;49.574;11.170;2023-09-07T08:42:11;3.40;;;3.00;;
13408;SDS011;6775;49.574;11.170;2023-09-07T08:44:39;3.50;;;3.07;;
13408;SDS011;6775;49.574;11.170;2023-09-07T08:47:13;3.13;;;2.83;;
13408;SDS011;6775;49.574;11.170;2023-09-07T08:49:42;3.43;;;3.13;;
13408;SDS011;6775;49.574;11.170;2023-09-07T08:52:14;3.87;;;3.40;;
13408;SDS011;6775;49.574;11.170;2023-09-07T08:54:44;3.40;;;3.10;;
13408;SDS011;6775;49.574;11.170;2023-09-07T08:57:14;3.70;;;3.20;;
13408;SDS011;6775;49.574;11.170;2023-09-07T08:59:44;3.73;;;3.20;;
13408;SDS011;6775;49.574;11.170;2023-09-07T09:02:12;3.60;;;2.67;;
13408;SDS011;6775;49.574;11.170;2023-09-07T09:04:40;3.50;;;3.07;;
13408;SDS011;6775;49.574;11.170;2023-09-07T09:07:09;3.53;;;3.13;;
13408;SDS011;6775;49.574;11.170;2023-09-07T09:09:37;3.83;;;3.50;;
13408;SDS011;6775;49.574;11.170;2023-09-07T09:12:08;3.60;;;3.30;;
13408;SDS011;6775;49.574;11.170;2023-09-07T09:14:38;3.30;;;3.00;;
13408;SDS011;6775;49.574;11.170;2023-09-07T09:17:11;3.13;;;2.90;;
13408;SDS011;6775;49.574;11.170;2023-09-07T09:19:40;3.40;;;3.10;;
13408;SDS011;6775;49.574;11.170;2023-09-07T09:22:10;5.57;;;3.27;;
13408;SDS011;6775;49.574;11.170;2023-09-07T09:24:39;3.77;;;3.30;;
13408;SDS011;6775;49.574;11.170;2023-09-07T09:27:07;3.37;;;3.10;;
13408;SDS011;6775;49.574;11.170;2023-09-07T09:29:35;3.40;;;3.10;;
13408;SDS011;6775;49.574;11.170;2023-09-07T09:32:04;3.37;;;3.03;;
13408;SDS011;6775;49.574;11.170;2023-09-07T09:34:35;3.00;;;2.80;;
13408;SDS011;6775;49.574;11.170;2023-09-07T09:37:04;3.33;;;3.03;;
13408;SDS011;6775;49.574;11.170;2023-09-07T09:39:42;2.90;;;2.70;;
13408;SDS011;6775;49.574;11.170;2023-09-07T09:42:16;3.50;;;3.20;;
13408;SDS011;6775;49.574;11.170;2023-09-07T09:44:45;3.30;;;3.00;;
13408;SDS011;6775;49.574;11.170;2023-09-07T09:47:16;3.73;;;3.37;;
13408;SDS011;6775;49.574;11.170;2023-09-07T09:49:46;3.63;;;3.17;;
13408;SDS011;6775;49.574;11.170;2023-09-07T09:52:17;4.80;;;3.33;;
13408;SDS011;6775;49.574;11.170;2023-09-07T09:54:46;3.63;;;3.33;;
13408;SDS011;6775;49.574;11.170;2023-09-07T09:57:16;3.23;;;3.00;;
13408;SDS011;6775;49.574;11.170;2023-09-07T09:59:44;3.23;;;2.93;;
13408;SDS011;6775;49.574;11.170;2023-09-07T10:02:12;3.67;;;3.37;;
13408;SDS011;6775;49.574;11.170;2023-09-07T10:04:41;3.67;;;3.33;;
13408;SDS011;6775;49.574;11.170;2023-09-07T10:07:09;4.13;;;3.57;;
13408;SDS011;6775;49.574;11.170;2023-09-07T10:09:39;3.50;;;3.20;;
13408;SDS011;6775;49.574;11.170;2023-09-07T10:12:11;4.07;;;3.07;;
13408;SDS011;6775;49.574;11.170;2023-09-07T10:14:44;5.93;;;3.40;;
13408;SDS011;6775;49.574;11.170;2023-09-07T10:17:21;3.40;;;3.10;;
13408;SDS011;6775;49.574;11.170;2023-09-07T10:19:50;3.57;;;3.30;;
13408;SDS011;6775;49.574;11.170;2023-09-07T10:22:31;3.43;;;3.13;;
13408;SDS011;6775;49.574;11.170;2023-09-07T10:25:00;3.87;;;2.97;;
13408;SDS011;6775;49.574;11.170;2023-09-07T10:27:36;3.83;;;3.47;;
13408;SDS011;6775;49.574;11.170;2023-09-07T10:30:09;4.00;;;3.60;;
13408;SDS011;6775;49.574;11.170;2023-09-07T10:32:39;3.20;;;2.97;;
13408;SDS011;6775;49.574;11.170;2023-09-07T10:35:12;3.93;;;3.20;;
13408;SDS011;6775;49.574;11.170;2023-09-07T10:37:43;3.13;;;2.87;;
13408;SDS011;6775;49.574;11.170;2023-09-07T10:40:20;3.17;;;2.70;;
13408;SDS011;6775;49.574;11.170;2023-09-07T10:42:49;3.40;;;3.10;;
13408;SDS011;6775;49.574;11.170;2023-09-07T10:45:28;3.17;;;2.87;;
13408;SDS011;6775;49.574;11.170;2023-09-07T10:47:56;4.23;;;3.13;;
13408;SDS011;6775;49.574;11.170;2023-09-07T10:50:24;3.40;;;3.10;;
13408;SDS011;6775;49.574;11.170;2023-09-07T10:52:53;3.73;;;3.30;;
13408;SDS011;6775;49.574;11.170;2023-09-07T10:55:23;3.27;;;2.93;;
13408;SDS011;6775;49.574;11.170;2023-09-07T10:57:54;4.03;;;3.00;;
13408;SDS011;6775;49.574;11.170;2023-09-07T11:00:22;3.13;;;2.90;;
13408;SDS011;6775;49.574;11.170;2023-09-07T11:02:50;3.27;;;3.00;;
13408;SDS011;6775;49.574;11.170;2023-09-07T11:05:18;3.30;;;3.00;;
13408;SDS011;6775;49.574;11.170;2023-09-07T11:07:46;3.93;;;2.87;;
13408;SDS011;6775;49.574;11.170;2023-09-07T11:10:14;3.80;;;2.90;;
13408;SDS011;6775;49.574;11.170;2023-09-07T11:12:44;4.47;;;2.70;;
13408;SDS011;6775;49.574;11.170;2023-09-07T11:15:14;3.53;;;3.10;;
13408;SDS011;6775;49.574;11.170;2023-09-07T11:17:42;3.20;;;2.90;;
13408;SDS011;6775;49.574;11.170;2023-09-07T11:20:12;3.33;;;3.10;;
13408;SDS011;6775;49.574;11.170;2023-09-07T11:22:40;3.10;;;2.80;;
13408;SDS011;6775;49.574;11.170;2023-09-07T11:25:33;2.60;;;2.40;;
13408;SDS011;6775;49.574;11.170;2023-09-07T11:28:05;3.17;;;2.87;;
13408;SDS011;6775;49.574;11.170;2023-09-07T11:30:34;2.63;;;2.43;;
13408;SDS011;6775;49.574;11.170;2023-09-07T11:33:03;5.20;;;2.63;;
13408;SDS011;6775;49.574;11.170;2023-09-07T11:35:33;2.80;;;2.60;;
13408;SDS011;6775;49.574;11.170;2023-09-07T11:38:02;4.00;;;2.97;;
13408;SDS011;6775;49.574;11.170;2023-09-07T11:40:33;3.57;;;3.00;;
13408;SDS011;6775;49.574;11.170;2023-09-07T11:43:01;3.50;;;3.20;;
13408;SDS011;6775;49.574;11.170;2023-09-07T11:45:31;3.00;;;2.80;;
13408;SDS011;6775;49.574;11.170;2023-09-07T11:47:59;4.30;;;3.00;;
13408;SDS011;6775;49.574;11.170;2023-09-07T11:50:27;2.93;;;2.73;;
13408;SDS011;6775;49.574;11.170;2023-09-07T11:52:56;3.10;;;2.80;;
13408;SDS011;6775;49.574;11.170;2023-09-07T11:55:24;3.20;;;2.90;;
13408;SDS011;6775;49.574;11.170;2023-09-07T11:57:52;4.67;;;2.83;;
13408;SDS011;6775;49.574;11.170;2023-09-07T12:00:20;3.43;;;2.80;;
13408;SDS011;6775;49.574;11.170;2023-09-07T12:02:49;3.20;;;2.90;;
13408;SDS011;6775;49.574;11.170;2023-09-07T12:05:18;3.27;;;2.77;;
13408;SDS011;6775;49.574;11.170;2023-09-07T12:07:46;3.03;;;2.50;;
13408;SDS011;6775;49.574;11.170;2023-09-07T12:10:14;4.37;;;2.87;;
13408;SDS011;6775;49.574;11.170;2023-09-07T12:12:43;3.40;;;3.10;;
13408;SDS011;6775;49.574;11.170;2023-09-07T12:15:11;5.40;;;2.70;;
13408;SDS011;6775;49.574;11.170;2023-09-07T12:17:39;3.43;;;2.97;;
13408;SDS011;6775;49.574;11.170;2023-09-07T12:20:10;3.20;;;2.90;;
13408;SDS011;6775;49.574;11.170;2023-09-07T12:22:40;3.87;;;2.80;;
13408;SDS011;6775;49.574;11.170;2023-09-07T12:25:08;3.40;;;3.00;;
13408;SDS011;6775;49.574;11.170;2023-09-07T12:27:41;3.00;;;2.70;;
13408;SDS011;6775;49.574;11.170;2023-09-07T12:30:20;3.17;;;2.87;;
13408;SDS011;6775;49.574;11.170;2023-09-07T12:32:51;3.30;;;3.00;;
13408;SDS011;6775;49.574;11.170;2023-09-07T12:35:21;3.13;;;2.80;;
13408;SDS011;6775;49.574;11.170;2023-09-07T12:37:49;4.90;;;3.03;;
13408;SDS011;6775;49.574;11.170;2023-09-07T12:40:17;3.60;;;2.90;;
13408;SDS011;6775;49.574;11.170;2023-09-07T12:42:45;3.03;;;2.67;;
13408;SDS011;6775;49.574;11.170;2023-09-07T12:45:13;3.47;;;3.17;;
13408;SDS011;6775;49.574;11.170;2023-09-07T12:47:42;3.00;;;2.70;;
13408;SDS011;6775;49.574;11.170;2023-09-07T12:50:11;3.47;;;3.03;;
13408;SDS011;6775;49.574;11.170;2023-09-07T12:52:40;2.93;;;2.73;;
13408;SDS011;6775;49.574;11.170;2023-09-07T12:55:08;3.60;;;3.30;;
13408;SDS011;6775;49.574;11.170;2023-09-07T12:57:37;3.67;;;2.80;;
13408;SDS011;6775;49.574;11.170;2023-09-07T13:00:05;3.37;;;2.87;;
13408;SDS011;6775;49.574;11.170;2023-09-07T13:02:34;2.67;;;2.47;;
13408;SDS011;6775;49.574;11.170;2023-09-07T13:05:02;2.93;;;2.70;;
13408;SDS011;6775;49.574;11.170;2023-09-07T13:07:32;3.10;;;2.90;;
13408;SDS011;6775;49.574;11.170;2023-09-07T13:10:02;3.17;;;2.97;;
13408;SDS011;6775;49.574;11.170;2023-09-07T13:12:32;3.10;;;2.80;;
13408;SDS011;6775;49.574;11.170;2023-09-07T13:15:00;2.90;;;2.70;;
13408;SDS011;6775;49.574;11.170;2023-09-07T13:17:28;3.40;;;3.10;;
13408;SDS011;6775;49.574;11.170;2023-09-07T13:19:57;4.23;;;3.13;;
13408;SDS011;6775;49.574;11.170;2023-09-07T13:22:25;3.00;;;2.80;;
13408;SDS011;6775;49.574;11.170;2023-09-07T13:24:53;2.83;;;2.63;;
13408;SDS011;6775;49.574;11.170;2023-09-07T13:27:22;3.23;;;2.80;;
13408;SDS011;6775;49.574;11.170;2023-09-07T13:29:52;2.73;;;2.50;;
13408;SDS011;6775;49.574;11.170;2023-09-07T13:32:19;3.50;;;2.60;;
13408;SDS011;6775;49.574;11.170;2023-09-07T13:34:47;3.17;;;2.77;;
13408;SDS011;6775;49.574;11.170;2023-09-07T13:37:15;3.33;;;3.03;;
13408;SDS011;6775;49.574;11.170;2023-09-07T13:39:43;3.23;;;2.93;;
13408;SDS011;6775;49.574;11.170;2023-09-07T13:42:11;3.93;;;2.93;;
13408;SDS011;6775;49.574;11.170;2023-09-07T13:44:42;3.20;;;2.90;;
13408;SDS011;6775;49.574;11.170;2023-09-07T13:47:11;2.80;;;2.60;;
13408;SDS011;6775;49.574;11.170;2023-09-07T13:49:39;2.73;;;2.53;;
13408;SDS011;6775;49.574;11.170;2023-09-07T13:52:07;3.20;;;2.90;;
13408;SDS011;6775;49.574;11.170;2023-09-07T13:54:35;2.97;;;2.70;;
13408;SDS011;6775;49.574;11.170;2023-09-07T13:57:04;3.67;;;2.67;;
13408;SDS011;6775;49.574;11.170;2023-09-07T13:59:33;3.20;;;2.90;;
13408;SDS011;6775;49.574;11.170;2023-09-07T14:02:03;3.17;;;2.97;;
13408;SDS011;6775;49.574;11.170;2023-09-07T14:04:31;4.40;;;3.10;;
13408;SDS011;6775;49.574;11.170;2023-09-07T14:06:59;3.33;;;3.03;;
13408;SDS011;6775;49.574;11.170;2023-09-07T14:09:27;4.00;;;3.17;;
13408;SDS011;6775;49.574;11.170;2023-09-07T14:11:55;3.37;;;3.07;;
13408;SDS011;6775;49.574;11.170;2023-09-07T14:14:23;3.53;;;3.10;;
13408;SDS011;6775;49.574;11.170;2023-09-07T14:16:51;3.57;;;3.27;;
13408;SDS011;6775;49.574;11.170;2023-09-07T14:19:26;3.63;;;3.33;;
13408;SDS011;6775;49.574;11.170;2023-09-07T14:21:57;3.23;;;2.93;;
13408;SDS011;6775;49.574;11.170;2023-09-07T14:24:25;3.27;;;2.90;;
13408;SDS011;6775;49.574;11.170;2023-09-07T14:26:53;3.17;;;2.90;;
13408;SDS011;6775;49.574;11.170;2023-09-07T14:29:21;3.37;;;3.07;;
13408;SDS011;6775;49.574;11.170;2023-09-07T14:31:49;3.17;;;2.87;;
13408;SDS011;6775;49.574;11.170;2023-09-07T14:34:17;3.50;;;3.20;;
13408;SDS011;6775;49.574;11.170;2023-09-07T14:36:47;2.80;;;2.60;;
13408;SDS011;6775;49.574;11.170;2023-09-07T14:39:15;3.30;;;3.00;;
13408;SDS011;6775;49.574;11.170;2023-09-07T14:41:46;3.03;;;2.73;;
13408;SDS011;6775;49.574;11.170;2023-09-07T14:44:15;2.67;;;2.40;;
13408;SDS011;6775;49.574;11.170;2023-09-07T14:46:46;3.83;;;3.03;;
13408;SDS011;6775;49.574;11.170;2023-09-07T14:49:16;3.63;;;3.20;;
13408;SDS011;6775;49.574;11.170;2023-09-07T14:51:44;3.10;;;2.80;;
13408;SDS011;6775;49.574;11.170;2023-09-07T14:54:14;2.80;;;2.60;;
13408;SDS011;6775;49.574;11.170;2023-09-07T14:56:42;3.27;;;2.80;;
13408;SDS011;6775;49.574;11.170;2023-09-07T14:59:10;3.33;;;2.93;;